createdAt,value
2023-04-16T00:01:42.050Z,4.80
2023-04-16T00:04:10.035Z,5.80
2023-04-16T00:06:37.795Z,6.13
2023-04-16T00:09:05.615Z,8.35
2023-04-16T00:11:33.350Z,5.55
2023-04-16T00:14:01.241Z,10.40
2023-04-16T00:16:29.350Z,7.18
2023-04-16T00:18:58.508Z,6.45
2023-04-16T00:21:26.407Z,7.63
2023-04-16T00:23:54.141Z,6.88
2023-04-16T00:26:21.881Z,11.38
2023-04-16T00:28:49.555Z,8.23
2023-04-16T00:31:17.412Z,7.35
2023-04-16T00:33:45.167Z,10.68
2023-04-16T00:36:14.287Z,8.40
2023-04-16T00:38:42.000Z,12.48
2023-04-16T00:41:09.681Z,8.95
2023-04-16T00:43:37.451Z,21.92
2023-04-16T00:46:07.180Z,8.90
2023-04-16T00:48:35.716Z,9.75
2023-04-16T00:51:06.160Z,10.00
2023-04-16T00:53:35.885Z,9.05
2023-04-16T00:56:04.596Z,8.25
2023-04-16T00:58:32.995Z,8.90
2023-04-16T01:01:00.817Z,9.68
2023-04-16T01:03:38.216Z,8.00
2023-04-16T01:06:07.285Z,12.65
2023-04-16T01:08:36.855Z,8.02
2023-04-16T01:11:05.383Z,8.77
2023-04-16T01:13:34.660Z,11.88
2023-04-16T01:16:02.451Z,8.93
2023-04-16T01:18:30.219Z,11.38
2023-04-16T01:20:59.623Z,11.35
2023-04-16T01:23:27.415Z,9.48
2023-04-16T01:25:55.272Z,11.55
2023-04-16T01:28:23.352Z,9.38
2023-04-16T01:30:51.300Z,11.95
2023-04-16T01:33:19.668Z,14.80
2023-04-16T01:35:47.525Z,12.73
2023-04-16T01:38:16.645Z,11.82
2023-04-16T01:40:44.415Z,13.10
2023-04-16T01:43:12.252Z,10.38
2023-04-16T01:45:39.946Z,11.45
2023-04-16T01:48:08.393Z,11.15
2023-04-16T01:50:36.513Z,15.43
2023-04-16T01:53:05.247Z,11.15
2023-04-16T01:55:35.230Z,13.95
2023-04-16T01:58:03.215Z,13.43
2023-04-16T02:00:31.113Z,12.32
2023-04-16T02:02:59.084Z,14.15
2023-04-16T02:05:27.271Z,11.20
2023-04-16T02:07:55.211Z,14.95
2023-04-16T02:10:23.519Z,11.77
2023-04-16T02:12:52.747Z,15.85
2023-04-16T02:15:20.493Z,12.15
2023-04-16T02:17:48.952Z,11.55
2023-04-16T02:20:17.739Z,10.65
2023-04-16T02:22:45.508Z,12.95
2023-04-16T02:25:14.149Z,15.02
2023-04-16T02:27:42.042Z,13.15
2023-04-16T02:30:12.476Z,12.60
2023-04-16T02:32:40.430Z,12.98
2023-04-16T02:35:08.943Z,13.45
2023-04-16T02:37:36.691Z,12.43
2023-04-16T02:40:04.654Z,15.32
2023-04-16T02:42:32.386Z,18.13
2023-04-16T02:45:00.283Z,12.45
2023-04-16T02:47:29.518Z,14.73
2023-04-16T02:49:57.316Z,16.20
2023-04-16T02:52:25.115Z,24.40
2023-04-16T02:54:52.947Z,16.70
2023-04-16T02:57:21.023Z,15.75
2023-04-16T02:59:48.788Z,17.20
2023-04-16T03:02:17.217Z,15.45
2023-04-16T03:04:46.988Z,16.42
2023-04-16T03:07:15.073Z,16.92
2023-04-16T03:09:42.885Z,17.13
2023-04-16T03:12:10.766Z,14.88
2023-04-16T03:14:38.450Z,17.40
2023-04-16T03:17:06.294Z,18.17
2023-04-16T03:19:34.288Z,19.30
2023-04-16T03:22:03.521Z,16.65
2023-04-16T03:24:31.422Z,19.00
2023-04-16T03:26:59.814Z,16.40
2023-04-16T03:29:27.722Z,16.13
2023-04-16T03:31:55.492Z,16.45
2023-04-16T03:34:23.345Z,20.50
2023-04-16T03:36:51.067Z,20.58
2023-04-16T03:39:20.104Z,18.65
2023-04-16T03:41:47.866Z,18.05
2023-04-16T03:44:15.556Z,15.90
2023-04-16T03:46:43.331Z,20.02
2023-04-16T03:49:11.451Z,19.27
2023-04-16T03:51:39.456Z,21.48
2023-04-16T03:54:07.292Z,25.65
2023-04-16T03:56:36.478Z,20.15
2023-04-16T03:59:04.395Z,17.17
2023-04-16T04:01:32.168Z,21.58
2023-04-16T04:04:00.534Z,18.08
2023-04-16T04:06:28.600Z,18.33
2023-04-16T04:08:56.540Z,18.55
2023-04-16T04:11:24.530Z,18.08
2023-04-16T04:13:53.641Z,19.30
2023-04-16T04:16:21.468Z,20.67
2023-04-16T04:18:49.182Z,19.85
2023-04-16T04:21:17.162Z,21.65
2023-04-16T04:23:44.916Z,20.70
2023-04-16T04:26:12.742Z,21.13
2023-04-16T04:28:40.693Z,19.83
2023-04-16T04:31:09.799Z,18.98
2023-04-16T04:33:37.698Z,19.42
2023-04-16T04:36:05.678Z,19.88
2023-04-16T04:38:33.464Z,20.30
2023-04-16T04:41:01.431Z,22.52
2023-04-16T04:43:29.208Z,20.48
2023-04-16T04:45:57.176Z,25.02
2023-04-16T04:48:27.685Z,24.67
2023-04-16T04:50:55.421Z,18.75
2023-04-16T04:53:23.201Z,21.75
2023-04-16T04:55:53.986Z,20.63
2023-04-16T04:58:25.019Z,22.75
2023-04-16T05:00:52.830Z,20.70
2023-04-16T05:03:22.296Z,18.67
2023-04-16T05:05:51.497Z,20.33
2023-04-16T05:08:19.217Z,20.45
2023-04-16T05:10:47.096Z,21.80
2023-04-16T05:13:14.965Z,19.77
2023-04-16T05:15:42.761Z,25.10
2023-04-16T05:18:10.513Z,19.20
2023-04-16T05:20:38.852Z,19.15
2023-04-16T05:23:07.961Z,19.52
2023-04-16T05:25:36.234Z,18.13
2023-04-16T05:28:04.054Z,18.75
2023-04-16T05:30:31.963Z,20.90
2023-04-16T05:32:59.875Z,18.23
2023-04-16T05:35:27.883Z,21.55
2023-04-16T05:37:55.938Z,26.45
2023-04-16T05:40:25.004Z,23.67
2023-04-16T05:42:52.761Z,20.92
2023-04-16T05:45:20.590Z,30.48
2023-04-16T05:47:48.934Z,28.10
2023-04-16T05:50:17.092Z,17.85
2023-04-16T05:52:44.857Z,17.83
2023-04-16T05:55:12.685Z,17.23
2023-04-16T05:57:41.878Z,16.45
2023-04-16T06:00:10.436Z,18.23
2023-04-16T06:02:38.361Z,17.83
2023-04-16T06:05:06.865Z,21.85
2023-04-16T06:07:34.673Z,16.50
2023-04-16T06:10:02.495Z,17.83
2023-04-16T06:12:30.960Z,16.60
2023-04-16T06:15:01.182Z,16.95
2023-04-16T06:17:28.978Z,15.52
2023-04-16T06:19:56.771Z,16.15
2023-04-16T06:22:25.736Z,15.93
2023-04-16T06:24:53.954Z,14.77
2023-04-16T06:27:21.780Z,14.10
2023-04-16T06:29:49.474Z,14.45
2023-04-16T06:32:18.740Z,15.10
2023-04-16T06:34:46.643Z,15.00
2023-04-16T06:37:14.401Z,17.90
2023-04-16T06:39:42.195Z,13.48
2023-04-16T06:42:10.043Z,15.50
2023-04-16T06:44:37.865Z,12.27
2023-04-16T06:47:05.898Z,14.30
2023-04-16T06:49:35.498Z,9.65
2023-04-16T06:52:05.680Z,11.70
2023-04-16T06:54:33.772Z,10.10
2023-04-16T06:57:01.524Z,11.20
2023-04-16T06:59:29.732Z,8.32
2023-04-16T07:01:58.048Z,8.82
2023-04-16T07:04:26.055Z,9.05
2023-04-16T07:06:55.385Z,15.30
2023-04-16T07:09:23.164Z,7.82
2023-04-16T07:11:51.118Z,7.68
2023-04-16T07:14:18.937Z,6.97
2023-04-16T07:16:46.784Z,11.13
2023-04-16T07:19:14.613Z,9.73
2023-04-16T07:21:43.791Z,14.00
2023-04-16T07:24:12.890Z,11.15
2023-04-16T07:26:40.632Z,7.25
2023-04-16T07:29:08.667Z,10.68
2023-04-16T07:31:36.699Z,9.40
2023-04-16T07:34:04.566Z,9.43
2023-04-16T07:36:32.587Z,6.93
2023-04-16T07:39:00.332Z,5.40
2023-04-16T07:41:29.637Z,5.95
2023-04-16T07:43:57.742Z,6.55
2023-04-16T07:46:30.515Z,6.10
2023-04-16T07:49:03.929Z,7.30
2023-04-16T07:51:32.219Z,5.82
2023-04-16T07:53:59.967Z,5.45
2023-04-16T07:56:29.099Z,7.75
2023-04-16T07:58:58.342Z,4.38
2023-04-16T08:01:30.934Z,3.75
2023-04-16T08:03:58.876Z,4.97
2023-04-16T08:06:27.368Z,7.93
2023-04-16T08:08:55.134Z,5.13
2023-04-16T08:11:22.936Z,3.38
2023-04-16T08:13:52.463Z,3.45
2023-04-16T08:16:20.312Z,5.32
2023-04-16T08:18:48.260Z,4.50
2023-04-16T08:21:16.153Z,3.58
2023-04-16T08:23:43.887Z,3.25
2023-04-16T08:26:11.729Z,3.92
2023-04-16T08:28:39.515Z,3.03
2023-04-16T08:31:08.604Z,3.42
2023-04-16T08:33:36.449Z,5.25
2023-04-16T08:36:04.383Z,3.88
2023-04-16T08:38:32.182Z,3.75
2023-04-16T08:41:04.784Z,2.25
2023-04-16T08:43:35.278Z,2.85
2023-04-16T08:46:06.224Z,2.90
2023-04-16T08:48:36.365Z,2.38
2023-04-16T08:51:04.587Z,1.92
2023-04-16T08:53:38.167Z,2.10
2023-04-16T08:56:09.756Z,2.17
2023-04-16T08:58:40.356Z,1.90
2023-04-16T09:01:10.959Z,2.00
2023-04-16T09:03:40.873Z,2.67
2023-04-16T09:06:09.047Z,1.55
2023-04-16T09:08:38.155Z,3.08
2023-04-16T09:11:05.981Z,2.75
2023-04-16T09:13:33.927Z,1.48
2023-04-16T09:16:02.161Z,1.80
2023-04-16T09:18:29.907Z,1.60
2023-04-16T09:20:59.044Z,1.83
2023-04-16T09:23:26.818Z,1.38
2023-04-16T09:25:55.461Z,14.85
2023-04-16T09:28:43.626Z,4.13
2023-04-16T09:31:13.844Z,1.88
2023-04-16T09:33:42.874Z,2.22
2023-04-16T09:36:12.353Z,1.95
2023-04-16T09:38:50.206Z,1.92
2023-04-16T09:41:18.144Z,2.15
2023-04-16T09:43:57.195Z,1.63
2023-04-16T09:46:26.395Z,1.83
2023-04-16T09:48:54.252Z,1.85
2023-04-16T09:51:23.456Z,1.75
2023-04-16T09:53:53.728Z,2.58
2023-04-16T09:56:26.069Z,1.95
2023-04-16T09:58:58.390Z,2.27
2023-04-16T10:01:26.457Z,3.17
2023-04-16T10:03:56.070Z,2.53
2023-04-16T10:06:27.226Z,4.60
2023-04-16T10:08:56.997Z,3.20
2023-04-16T10:11:25.219Z,4.38
2023-04-16T10:13:52.987Z,2.25
2023-04-16T10:16:20.740Z,2.90
2023-04-16T10:18:48.593Z,2.50
2023-04-16T10:21:16.617Z,2.70
2023-04-16T10:23:46.370Z,2.85
2023-04-16T10:26:14.741Z,2.58
2023-04-16T10:28:43.367Z,3.53
2023-04-16T10:31:11.404Z,3.70
2023-04-16T10:33:42.244Z,3.42
2023-04-16T10:36:11.790Z,2.92
2023-04-16T10:38:41.120Z,3.33
2023-04-16T10:41:10.763Z,3.60
2023-04-16T10:43:42.688Z,4.95
2023-04-16T10:46:24.097Z,4.60
2023-04-16T10:48:54.077Z,4.05
2023-04-16T10:51:29.777Z,2.80
2023-04-16T10:53:58.557Z,4.35
2023-04-16T10:56:28.174Z,2.58
2023-04-16T10:58:57.089Z,4.22
2023-04-16T11:01:32.725Z,3.63
2023-04-16T11:04:04.283Z,3.40
2023-04-16T11:06:32.903Z,4.13
2023-04-16T11:09:00.893Z,4.30
2023-04-16T11:11:39.405Z,3.70
2023-04-16T11:14:09.035Z,4.60
2023-04-16T11:16:36.875Z,5.18
2023-04-16T11:19:04.731Z,4.40
2023-04-16T11:21:32.607Z,8.40
2023-04-16T11:24:00.396Z,4.75
2023-04-16T11:26:30.672Z,6.30
2023-04-16T11:29:00.188Z,5.97
2023-04-16T11:31:28.306Z,8.15
2023-04-16T11:33:57.730Z,5.50
2023-04-16T11:36:27.842Z,6.10
2023-04-16T11:39:03.401Z,5.57
2023-04-16T11:41:32.529Z,8.25
2023-04-16T11:44:00.413Z,6.88
2023-04-16T11:46:39.669Z,5.68
2023-04-16T11:49:07.588Z,7.57
2023-04-16T11:51:40.920Z,7.13
2023-04-16T11:54:11.667Z,11.48
2023-04-16T11:56:47.700Z,6.57
2023-04-16T11:59:17.234Z,9.38
2023-04-16T12:01:48.114Z,6.97
2023-04-16T12:04:17.548Z,7.88
2023-04-16T12:07:06.957Z,9.32
2023-04-16T12:09:38.667Z,8.15
2023-04-16T12:12:26.494Z,8.10
2023-04-16T12:14:56.810Z,7.28
2023-04-16T12:17:25.239Z,10.23
2023-04-16T12:19:54.073Z,10.75
2023-04-16T12:22:31.182Z,8.70
2023-04-16T12:25:04.101Z,8.50
2023-04-16T12:27:53.866Z,10.82
2023-04-16T12:30:24.301Z,9.10
2023-04-16T12:32:53.432Z,9.07
2023-04-16T12:35:32.134Z,9.07
2023-04-16T12:38:00.242Z,8.32
2023-04-16T12:40:28.603Z,7.30
2023-04-16T12:42:57.886Z,10.65
2023-04-16T12:45:26.258Z,15.02
2023-04-16T12:47:54.112Z,7.50
2023-04-16T12:50:22.136Z,7.05
2023-04-16T12:52:50.260Z,10.43
2023-04-16T12:55:18.513Z,8.57
2023-04-16T12:57:48.750Z,10.57
2023-04-16T13:00:18.347Z,6.00
2023-04-16T13:02:46.325Z,8.30
2023-04-16T13:05:16.554Z,6.50
2023-04-16T13:07:44.439Z,6.78
2023-04-16T13:10:12.988Z,7.65
2023-04-16T13:12:41.082Z,7.53
2023-04-16T13:15:10.490Z,7.60
2023-04-16T13:17:39.700Z,10.07
2023-04-16T13:20:08.956Z,7.28
2023-04-16T13:22:36.934Z,6.55
2023-04-16T13:25:05.012Z,8.50
2023-04-16T13:27:32.878Z,10.02
2023-04-16T13:30:00.617Z,9.93
2023-04-16T13:32:28.812Z,9.68
2023-04-16T13:34:57.962Z,16.02
2023-04-16T13:37:25.816Z,9.40
2023-04-16T13:39:53.538Z,7.57
2023-04-16T13:42:22.226Z,8.05
2023-04-16T13:44:53.335Z,6.88
2023-04-16T13:47:21.095Z,7.10
2023-04-16T13:49:49.173Z,9.25
2023-04-16T13:52:18.336Z,7.57
2023-04-16T13:54:46.110Z,8.13
2023-04-16T13:57:13.917Z,8.05
2023-04-16T13:59:41.689Z,6.20
2023-04-16T14:02:10.786Z,6.80
2023-04-16T14:04:38.591Z,8.05
2023-04-16T14:07:06.619Z,6.32
2023-04-16T14:09:35.681Z,5.82
2023-04-16T14:12:03.650Z,7.82
2023-04-16T14:14:31.944Z,8.20
2023-04-16T14:16:59.891Z,8.68
2023-04-16T14:19:27.689Z,8.55
2023-04-16T14:21:55.378Z,7.95
2023-04-16T14:24:23.167Z,7.93
2023-04-16T14:26:52.319Z,9.32
2023-04-16T14:29:20.139Z,10.98
2023-04-16T14:31:48.137Z,8.65
2023-04-16T14:34:15.932Z,11.07
2023-04-16T14:36:44.064Z,13.23
2023-04-16T14:39:12.320Z,11.63
2023-04-16T14:41:40.405Z,10.20
2023-04-16T14:44:09.600Z,14.23
2023-04-16T14:46:38.512Z,10.88
2023-04-16T14:49:06.805Z,11.02
2023-04-16T14:51:35.030Z,8.60
2023-04-16T14:54:02.869Z,8.73
2023-04-16T14:56:30.797Z,8.55
2023-04-16T14:58:58.863Z,8.90
2023-04-16T15:01:28.650Z,7.45
2023-04-16T15:03:57.558Z,7.97
2023-04-16T15:06:28.029Z,6.85
2023-04-16T15:08:56.051Z,7.05
2023-04-16T15:11:23.821Z,6.85
2023-04-16T15:13:51.633Z,11.32
2023-04-16T15:16:19.846Z,6.47
2023-04-16T15:18:50.326Z,9.82
2023-04-16T15:21:18.138Z,5.65
2023-04-16T15:23:45.932Z,6.95
2023-04-16T15:26:13.710Z,5.38
2023-04-16T15:28:41.466Z,7.03
2023-04-16T15:31:09.339Z,6.68
2023-04-16T15:33:37.168Z,9.20
2023-04-16T15:36:06.830Z,7.35
2023-04-16T15:38:34.673Z,6.90
2023-04-16T15:41:02.433Z,7.47
2023-04-16T15:43:30.579Z,8.52
2023-04-16T15:45:58.378Z,11.18
2023-04-16T15:48:26.258Z,7.10
2023-04-16T15:50:55.668Z,7.88
2023-04-16T15:53:24.859Z,9.00
2023-04-16T15:55:53.805Z,8.98
2023-04-16T15:58:22.998Z,8.00
2023-04-16T16:00:50.858Z,8.32
2023-04-16T16:03:19.531Z,6.95
2023-04-16T16:05:48.438Z,8.88
2023-04-16T16:08:16.188Z,7.53
2023-04-16T16:10:46.804Z,7.95
2023-04-16T16:13:18.055Z,7.28
2023-04-16T16:15:45.917Z,6.13
2023-04-16T16:18:13.692Z,8.38
2023-04-16T16:20:41.411Z,6.75
2023-04-16T16:23:09.556Z,5.90
2023-04-16T16:25:37.301Z,7.10
2023-04-16T16:28:06.960Z,7.80
2023-04-16T16:30:34.848Z,6.03
2023-04-16T16:33:02.669Z,6.53
2023-04-16T16:35:30.460Z,8.27
2023-04-16T16:37:59.478Z,10.27
2023-04-16T16:40:27.289Z,13.48
2023-04-16T16:42:55.074Z,10.25
2023-04-16T16:45:26.078Z,12.10
2023-04-16T16:47:54.788Z,10.57
2023-04-16T16:50:22.905Z,9.35
2023-04-16T16:52:50.731Z,8.85
2023-04-16T16:55:19.043Z,10.05
2023-04-16T16:57:46.894Z,9.95
2023-04-16T17:00:16.208Z,11.00
2023-04-16T17:02:45.647Z,12.00
2023-04-16T17:05:14.082Z,10.52
2023-04-16T17:07:41.808Z,8.90
2023-04-16T17:10:13.157Z,10.07
2023-04-16T17:12:41.048Z,10.93
2023-04-16T17:15:09.715Z,7.38
2023-04-16T17:17:37.520Z,8.27
2023-04-16T17:20:09.789Z,8.88
2023-04-16T17:22:38.376Z,7.90
2023-04-16T17:25:08.224Z,11.25
2023-04-16T17:27:36.252Z,10.15
2023-04-16T17:30:05.802Z,9.68
2023-04-16T17:32:34.303Z,11.15
2023-04-16T17:35:04.111Z,10.93
2023-04-16T17:37:34.152Z,11.50
2023-04-16T17:40:02.277Z,11.48
2023-04-16T17:42:30.031Z,10.57
2023-04-16T17:44:57.835Z,14.02
2023-04-16T17:47:25.685Z,17.25
2023-04-16T17:49:54.863Z,15.15
2023-04-16T17:52:22.720Z,13.98
2023-04-16T17:54:53.128Z,16.10
2023-04-16T17:57:20.917Z,21.95
2023-04-16T17:59:48.708Z,13.05
2023-04-16T18:02:17.025Z,15.63
2023-04-16T18:04:45.027Z,17.20
2023-04-16T18:07:13.001Z,17.98
2023-04-16T18:09:40.791Z,15.10
2023-04-16T18:12:10.747Z,16.25
2023-04-16T18:14:40.629Z,14.95
2023-04-16T18:17:08.567Z,22.08
2023-04-16T18:19:36.538Z,19.02
2023-04-16T18:22:04.375Z,15.55
2023-04-16T18:24:33.338Z,19.88
2023-04-16T18:27:01.473Z,17.10
2023-04-16T18:29:33.745Z,17.23
2023-04-16T18:32:04.339Z,19.05
2023-04-16T18:34:32.958Z,20.38
2023-04-16T18:37:00.775Z,20.13
2023-04-16T18:39:28.505Z,18.98
2023-04-16T18:41:56.363Z,21.33
2023-04-16T18:44:24.348Z,26.30
2023-04-16T18:46:53.610Z,20.13
2023-04-16T18:49:21.496Z,19.27
2023-04-16T18:51:49.295Z,21.10
2023-04-16T18:54:16.993Z,25.48
2023-04-16T18:56:45.086Z,24.13
2023-04-16T18:59:12.966Z,27.13
2023-04-16T19:01:41.362Z,20.30
2023-04-16T19:04:10.684Z,21.35
2023-04-16T19:06:38.629Z,18.13
2023-04-16T19:09:06.540Z,20.73
2023-04-16T19:11:34.488Z,21.45
2023-04-16T19:14:05.315Z,25.00
2023-04-16T19:16:33.093Z,20.80
2023-04-16T19:19:02.010Z,22.80
2023-04-16T19:21:31.355Z,20.38
2023-04-16T19:23:59.560Z,23.85
2023-04-16T19:26:28.017Z,25.23
2023-04-16T19:28:55.720Z,26.27
2023-04-16T19:31:23.652Z,29.05
2023-04-16T19:33:51.371Z,28.13
2023-04-16T19:36:19.106Z,27.02
2023-04-16T19:38:48.199Z,32.45
2023-04-16T19:41:15.969Z,30.40
2023-04-16T19:43:43.768Z,32.75
2023-04-16T19:46:11.583Z,33.88
2023-04-16T19:48:39.359Z,32.08
2023-04-16T19:51:07.115Z,33.80
2023-04-16T19:53:35.935Z,37.17
2023-04-16T19:56:05.489Z,41.15
2023-04-16T19:58:33.297Z,35.88
2023-04-16T20:01:01.188Z,36.45
2023-04-16T20:03:28.999Z,40.13
2023-04-16T20:05:56.804Z,33.17
2023-04-16T20:08:24.610Z,35.63
2023-04-16T20:10:54.224Z,35.08
2023-04-16T20:13:23.356Z,39.10
2023-04-16T20:15:53.159Z,31.27
2023-04-16T20:18:20.982Z,34.50
2023-04-16T20:20:48.764Z,32.45
2023-04-16T20:23:16.722Z,35.38
2023-04-16T20:25:46.159Z,33.20
2023-04-16T20:28:16.150Z,36.30
2023-04-16T20:30:45.285Z,44.20
2023-04-16T20:33:13.180Z,36.75
2023-04-16T20:35:41.010Z,45.13
2023-04-16T20:38:08.887Z,44.40
2023-04-16T20:40:38.730Z,43.38
2023-04-16T20:43:10.134Z,44.83
2023-04-16T20:45:40.947Z,44.55
2023-04-16T20:48:11.922Z,49.22
2023-04-16T20:50:39.797Z,44.70
2023-04-16T20:53:07.701Z,44.47
2023-04-16T20:55:35.530Z,39.83
2023-04-16T20:58:03.356Z,47.03
2023-04-16T21:00:31.133Z,44.25
2023-04-16T21:02:59.058Z,46.33
2023-04-16T21:05:30.033Z,48.45
2023-04-16T21:07:57.832Z,50.78
2023-04-16T21:10:25.552Z,48.03
2023-04-16T21:12:53.349Z,49.10
2023-04-16T21:15:21.299Z,49.38
2023-04-16T21:17:49.121Z,46.88
2023-04-16T21:20:17.084Z,48.25
2023-04-16T21:22:46.195Z,59.75
2023-04-16T21:25:14.063Z,56.60
2023-04-16T21:27:41.797Z,51.03
2023-04-16T21:30:10.738Z,52.78
2023-04-16T21:32:38.995Z,51.50
2023-04-16T21:35:07.313Z,58.25
2023-04-16T21:37:35.081Z,56.33
2023-04-16T21:40:04.943Z,52.30
2023-04-16T21:42:32.788Z,57.78
2023-04-16T21:45:00.956Z,58.80
2023-04-16T21:47:28.864Z,64.35
2023-04-16T21:49:56.601Z,60.63
2023-04-16T21:52:24.384Z,52.35
2023-04-16T21:54:52.152Z,67.05
2023-04-16T21:57:21.277Z,53.65
2023-04-16T21:59:49.013Z,57.00
2023-04-16T22:02:16.985Z,60.60
2023-04-16T22:04:44.829Z,62.25
2023-04-16T22:07:13.488Z,58.63
2023-04-16T22:09:41.525Z,58.88
2023-04-16T22:12:10.250Z,61.42
2023-04-16T22:14:46.188Z,59.05
2023-04-16T22:17:17.284Z,69.35
2023-04-16T22:19:45.779Z,55.33
2023-04-16T22:22:13.635Z,51.42
2023-04-16T22:24:41.364Z,58.60
2023-04-16T22:27:09.196Z,55.80
2023-04-16T22:29:36.923Z,63.65
2023-04-16T22:32:07.040Z,58.72
2023-04-16T22:34:34.839Z,60.08
2023-04-16T22:37:03.144Z,56.40
2023-04-16T22:39:31.583Z,54.58
2023-04-16T22:41:59.285Z,55.47
2023-04-16T22:44:27.267Z,57.05
2023-04-16T22:46:55.159Z,52.45
2023-04-16T22:49:24.356Z,52.33
2023-04-16T22:51:52.043Z,55.92
2023-04-16T22:54:19.879Z,54.60
2023-04-16T22:56:48.530Z,57.08
2023-04-16T22:59:16.373Z,56.22
2023-04-16T23:01:44.165Z,58.08
2023-04-16T23:04:12.017Z,49.03
2023-04-16T23:06:42.071Z,53.00
2023-04-16T23:09:10.436Z,52.47
2023-04-16T23:11:41.310Z,49.15
2023-04-16T23:14:09.704Z,59.30
2023-04-16T23:16:37.904Z,49.45
2023-04-16T23:19:05.773Z,51.70
2023-04-16T23:21:33.494Z,47.85
2023-04-16T23:24:03.417Z,51.38
2023-04-16T23:26:31.103Z,54.45
2023-04-16T23:28:58.850Z,47.50
2023-04-16T23:31:26.624Z,45.88
2023-04-16T23:33:54.876Z,55.30
2023-04-16T23:36:22.566Z,44.47
2023-04-16T23:38:50.260Z,52.35
2023-04-16T23:41:19.392Z,50.90
2023-04-16T23:43:47.428Z,48.00
2023-04-16T23:46:15.503Z,46.15
2023-04-16T23:48:43.261Z,49.08
2023-04-16T23:51:10.972Z,49.88
2023-04-16T23:53:40.727Z,49.80
2023-04-16T23:56:11.044Z,48.25
2023-04-16T23:58:40.266Z,47.42
